createdAt,value
2019-05-21T00:00:30.372Z,6.13
2019-05-21T00:02:59.175Z,6.03
2019-05-21T00:05:27.791Z,6.77
2019-05-21T00:07:56.345Z,7.20
2019-05-21T00:10:25.023Z,7.13
2019-05-21T00:12:53.607Z,6.20
2019-05-21T00:15:22.248Z,7.33
2019-05-21T00:17:50.834Z,6.80
2019-05-21T00:20:19.535Z,6.90
2019-05-21T00:22:48.141Z,6.60
2019-05-21T00:25:17.403Z,7.00
2019-05-21T00:27:46.308Z,6.80
2019-05-21T00:30:51.139Z,6.20
2019-05-21T00:33:56.040Z,6.23
2019-05-21T00:37:01.815Z,5.83
2019-05-21T00:40:06.728Z,5.77
2019-05-21T00:42:38.381Z,5.53
2019-05-21T00:45:11.734Z,6.17
2019-05-21T00:47:40.412Z,6.37
2019-05-21T00:50:10.424Z,6.00
2019-05-21T00:52:39.182Z,6.27
2019-05-21T00:55:08.082Z,5.70
2019-05-21T00:57:36.679Z,5.90
2019-05-21T01:00:07.396Z,6.47
2019-05-21T01:02:36.112Z,6.40
2019-05-21T01:05:05.941Z,6.10
2019-05-21T01:07:34.568Z,6.20
2019-05-21T01:10:22.551Z,6.40
2019-05-21T01:12:51.092Z,5.73
2019-05-21T01:15:19.709Z,5.80
2019-05-21T01:17:49.259Z,5.83
2019-05-21T01:20:18.579Z,6.23
2019-05-21T01:22:47.113Z,5.40
2019-05-21T01:25:15.696Z,6.00
2019-05-21T01:27:44.330Z,5.97
2019-05-21T01:30:13.243Z,6.00
2019-05-21T01:32:41.790Z,5.73
2019-05-21T01:35:17.204Z,6.00
2019-05-21T01:37:40.764Z,5.90
2019-05-21T01:40:09.671Z,5.97
2019-05-21T01:42:38.157Z,5.73
2019-05-21T01:45:06.981Z,5.57
2019-05-21T01:47:35.528Z,5.67
2019-05-21T01:50:05.647Z,5.27
2019-05-21T01:52:34.200Z,5.60
2019-05-21T01:55:02.698Z,6.07
2019-05-21T01:57:31.248Z,6.20
2019-05-21T01:59:59.711Z,5.57
2019-05-21T02:02:28.291Z,6.77
2019-05-21T02:04:56.773Z,6.10
2019-05-21T02:07:25.328Z,6.67
2019-05-21T02:10:00.018Z,6.63
2019-05-21T02:12:28.834Z,6.80
2019-05-21T02:14:57.435Z,6.70
2019-05-21T02:17:26.106Z,6.73
2019-05-21T02:19:54.727Z,6.97
2019-05-21T02:22:23.209Z,6.20
2019-05-21T02:24:51.871Z,7.23
2019-05-21T02:27:20.577Z,7.80
2019-05-21T02:29:49.124Z,7.13
2019-05-21T02:32:17.620Z,7.13
2019-05-21T02:35:05.764Z,6.70
2019-05-21T02:37:34.508Z,6.83
2019-05-21T02:40:03.707Z,7.63
2019-05-21T02:42:32.367Z,7.27
2019-05-21T02:45:00.919Z,6.77
2019-05-21T02:47:30.138Z,7.80
2019-05-21T02:49:58.776Z,8.57
2019-05-21T02:52:27.518Z,8.10
2019-05-21T02:54:56.130Z,8.73
2019-05-21T02:57:26.386Z,9.13
2019-05-21T02:59:56.691Z,8.30
2019-05-21T03:02:33.075Z,8.90
2019-05-21T03:05:01.654Z,8.60
2019-05-21T03:07:30.590Z,9.63
2019-05-21T03:09:59.252Z,9.50
2019-05-21T03:12:27.864Z,9.23
2019-05-21T03:14:56.528Z,8.10
2019-05-21T03:17:25.149Z,8.03
2019-05-21T03:19:53.716Z,9.97
2019-05-21T03:22:22.425Z,10.20
2019-05-21T03:24:51.059Z,10.17
2019-05-21T03:27:19.644Z,9.50
2019-05-21T03:29:48.297Z,9.73
2019-05-21T03:32:16.843Z,9.57
2019-05-21T03:34:45.429Z,9.50
2019-05-21T03:37:14.044Z,9.57
2019-05-21T03:39:42.619Z,9.20
2019-05-21T03:42:11.214Z,9.50
2019-05-21T03:44:56.332Z,9.57
2019-05-21T03:47:10.245Z,9.33
2019-05-21T03:49:38.817Z,9.83
2019-05-21T03:52:07.439Z,9.43
2019-05-21T03:54:35.995Z,9.00
2019-05-21T03:57:04.767Z,8.60
2019-05-21T03:59:33.415Z,8.77
2019-05-21T04:02:01.968Z,8.97
2019-05-21T04:04:30.562Z,9.00
2019-05-21T04:06:59.126Z,9.13
2019-05-21T04:09:27.745Z,9.13
2019-05-21T04:11:56.453Z,9.20
2019-05-21T04:14:38.702Z,10.67
2019-05-21T04:17:21.277Z,10.07
2019-05-21T04:19:53.079Z,9.50
2019-05-21T04:22:21.721Z,8.87
2019-05-21T04:24:50.411Z,9.40
2019-05-21T04:27:19.109Z,9.37
2019-05-21T04:29:47.712Z,9.73
2019-05-21T04:32:16.471Z,10.57
2019-05-21T04:34:45.040Z,9.23
2019-05-21T04:37:17.276Z,9.90
2019-05-21T04:39:43.956Z,10.33
2019-05-21T04:42:12.552Z,9.53
2019-05-21T04:44:41.135Z,9.60
2019-05-21T04:47:09.781Z,9.87
2019-05-21T04:49:38.345Z,10.40
2019-05-21T04:52:06.991Z,9.67
2019-05-21T04:54:35.653Z,9.90
2019-05-21T04:57:04.348Z,10.20
2019-05-21T04:59:33.145Z,11.03
2019-05-21T05:02:01.747Z,10.53
2019-05-21T05:04:30.367Z,10.50
2019-05-21T05:06:58.926Z,10.13
2019-05-21T05:09:27.579Z,10.53
2019-05-21T05:11:56.155Z,11.67
2019-05-21T05:14:24.779Z,9.37
2019-05-21T05:16:53.348Z,11.87
2019-05-21T05:19:21.984Z,11.83
2019-05-21T05:21:50.558Z,11.13
2019-05-21T05:24:19.190Z,10.77
2019-05-21T05:26:47.743Z,11.23
2019-05-21T05:29:16.331Z,12.90
2019-05-21T05:31:45.360Z,12.97
2019-05-21T05:34:13.978Z,11.43
2019-05-21T05:36:42.520Z,13.03
2019-05-21T05:39:11.251Z,12.63
2019-05-21T05:41:39.899Z,12.23
2019-05-21T05:44:08.520Z,13.13
2019-05-21T05:46:37.103Z,13.17
2019-05-21T05:49:13.266Z,14.43
2019-05-21T05:51:41.834Z,14.30
2019-05-21T05:54:10.394Z,13.87
2019-05-21T05:56:40.487Z,13.87
2019-05-21T05:59:09.852Z,14.03
2019-05-21T06:01:38.445Z,15.10
2019-05-21T06:04:07.068Z,14.60
2019-05-21T06:06:35.716Z,14.83
2019-05-21T06:09:05.735Z,14.67
2019-05-21T06:11:34.544Z,16.00
2019-05-21T06:14:03.303Z,15.87
2019-05-21T06:16:31.929Z,15.40
2019-05-21T06:19:00.578Z,14.63
2019-05-21T06:21:29.787Z,15.03
2019-05-21T06:23:58.297Z,15.80
2019-05-21T06:26:26.842Z,14.57
2019-05-21T06:28:55.480Z,13.43
2019-05-21T06:31:24.078Z,15.33
2019-05-21T06:33:52.703Z,15.47
2019-05-21T06:36:21.338Z,16.20
2019-05-21T06:38:49.948Z,15.97
2019-05-21T06:41:18.517Z,16.83
2019-05-21T06:43:47.208Z,16.27
2019-05-21T06:46:15.976Z,15.97
2019-05-21T06:48:44.668Z,15.60
2019-05-21T06:51:13.364Z,15.13
2019-05-21T06:53:41.975Z,14.53
2019-05-21T06:56:10.563Z,14.30
2019-05-21T06:58:39.219Z,13.33
2019-05-21T07:01:07.863Z,13.27
2019-05-21T07:03:36.412Z,14.83
2019-05-21T07:06:05.049Z,14.13
2019-05-21T07:08:35.216Z,13.73
2019-05-21T07:11:04.205Z,12.97
2019-05-21T07:13:32.879Z,13.70
2019-05-21T07:16:01.473Z,12.57
2019-05-21T07:18:30.100Z,12.67
2019-05-21T07:20:58.686Z,11.70
2019-05-21T07:23:27.177Z,13.40
2019-05-21T07:25:55.768Z,13.03
2019-05-21T07:28:24.351Z,11.77
2019-05-21T07:30:53.081Z,11.67
2019-05-21T07:33:21.669Z,12.07
2019-05-21T07:35:50.360Z,11.23
2019-05-21T07:38:18.903Z,12.00
2019-05-21T07:40:47.559Z,13.13
2019-05-21T07:43:16.166Z,12.40
2019-05-21T07:45:44.847Z,11.77
2019-05-21T07:48:13.564Z,12.07
2019-05-21T07:50:42.101Z,12.07
2019-05-21T07:53:10.660Z,11.67
2019-05-21T07:55:39.204Z,11.43
2019-05-21T07:58:07.962Z,10.70
2019-05-21T08:00:36.517Z,11.23
2019-05-21T08:03:05.025Z,11.00
2019-05-21T08:05:33.660Z,10.77
2019-05-21T08:08:02.776Z,10.20
2019-05-21T08:10:31.331Z,10.17
2019-05-21T08:13:00.096Z,10.23
2019-05-21T08:15:28.655Z,10.40
2019-05-21T08:17:57.326Z,9.03
2019-05-21T08:20:26.417Z,9.67
2019-05-21T08:22:55.090Z,10.20
2019-05-21T08:25:23.806Z,9.63
2019-05-21T08:27:52.627Z,9.13
2019-05-21T08:30:21.537Z,8.53
2019-05-21T08:32:50.264Z,8.40
2019-05-21T08:35:18.989Z,9.43
2019-05-21T08:37:47.627Z,9.23
2019-05-21T08:40:17.439Z,8.57
2019-05-21T08:42:46.996Z,9.20
2019-05-21T08:45:15.943Z,9.23
2019-05-21T08:47:44.498Z,8.33
2019-05-21T08:50:32.434Z,8.93
2019-05-21T08:53:01.076Z,10.10
2019-05-21T08:55:29.736Z,8.70
2019-05-21T08:58:06.837Z,7.30
2019-05-21T09:00:30.243Z,8.63
2019-05-21T09:02:58.936Z,8.03
2019-05-21T09:05:27.674Z,10.20
2019-05-21T09:07:56.378Z,8.17
2019-05-21T09:10:24.942Z,7.30
2019-05-21T09:12:53.760Z,8.80
2019-05-21T09:15:24.002Z,9.33
2019-05-21T09:17:52.529Z,8.37
2019-05-21T09:20:21.832Z,8.33
2019-05-21T09:22:50.459Z,6.73
2019-05-21T09:25:19.148Z,7.20
2019-05-21T09:27:48.112Z,7.90
2019-05-21T09:30:17.382Z,8.20
2019-05-21T09:32:46.279Z,6.93
2019-05-21T09:35:18.046Z,6.70
2019-05-21T09:37:46.732Z,7.70
2019-05-21T09:40:17.943Z,7.87
2019-05-21T09:42:46.521Z,7.63
2019-05-21T09:45:15.554Z,7.53
2019-05-21T09:47:44.279Z,7.90
2019-05-21T09:50:13.671Z,6.80
2019-05-21T09:52:42.285Z,6.83
2019-05-21T09:55:11.136Z,8.07
2019-05-21T09:57:59.681Z,7.27
2019-05-21T10:00:36.017Z,7.97
2019-05-21T10:03:12.258Z,7.43
2019-05-21T10:05:40.899Z,6.10
2019-05-21T10:08:10.971Z,6.27
2019-05-21T10:10:39.700Z,7.57
2019-05-21T10:13:08.261Z,6.53
2019-05-21T10:15:36.951Z,7.57
2019-05-21T10:18:05.691Z,6.00
2019-05-21T10:20:34.317Z,5.60
2019-05-21T10:23:02.940Z,6.97
2019-05-21T10:25:31.514Z,7.10
2019-05-21T10:28:00.079Z,6.73
2019-05-21T10:30:28.792Z,5.33
2019-05-21T10:32:57.283Z,4.83
2019-05-21T10:35:25.901Z,5.10
2019-05-21T10:37:55.548Z,5.30
2019-05-21T10:40:24.385Z,4.83
2019-05-21T10:42:53.057Z,4.70
2019-05-21T10:45:21.607Z,4.60
2019-05-21T10:47:50.337Z,5.10
2019-05-21T10:50:19.076Z,4.50
2019-05-21T10:52:47.657Z,3.90
2019-05-21T10:55:17.651Z,3.80
2019-05-21T10:57:46.289Z,5.07
2019-05-21T11:00:22.860Z,5.27
2019-05-21T11:02:51.887Z,5.10
2019-05-21T11:05:28.669Z,5.37
2019-05-21T11:07:55.536Z,3.87
2019-05-21T11:10:24.105Z,4.23
2019-05-21T11:12:52.655Z,5.10
2019-05-21T11:15:21.470Z,4.57
2019-05-21T11:18:09.139Z,3.87
2019-05-21T11:20:20.385Z,4.20
2019-05-21T11:22:49.031Z,3.73
2019-05-21T11:25:17.770Z,3.73
2019-05-21T11:27:46.479Z,4.30
2019-05-21T11:30:15.595Z,3.13
2019-05-21T11:32:47.399Z,3.33
2019-05-21T11:35:14.713Z,3.70
2019-05-21T11:37:47.199Z,4.43
2019-05-21T11:40:15.560Z,4.57
2019-05-21T11:42:44.357Z,3.80
2019-05-21T11:45:33.683Z,3.60
2019-05-21T11:48:02.392Z,5.60
2019-05-21T11:50:31.191Z,4.00
2019-05-21T11:52:59.828Z,3.47
2019-05-21T11:55:28.433Z,4.23
2019-05-21T11:57:56.994Z,3.73
2019-05-21T12:00:27.288Z,3.00
2019-05-21T12:02:55.872Z,2.90
2019-05-21T12:05:24.455Z,3.27
2019-05-21T12:07:53.180Z,2.97
2019-05-21T12:10:21.828Z,2.73
2019-05-21T12:12:50.448Z,2.20
2019-05-21T12:15:19.179Z,2.77
2019-05-21T12:17:47.744Z,2.77
2019-05-21T12:20:33.617Z,2.60
2019-05-21T12:22:48.766Z,2.20
2019-05-21T12:25:17.572Z,2.17
2019-05-21T12:27:46.263Z,2.23
2019-05-21T12:30:15.183Z,2.10
2019-05-21T12:32:43.829Z,2.20
2019-05-21T12:35:13.101Z,1.80
2019-05-21T12:37:41.978Z,1.73
2019-05-21T12:40:11.174Z,1.90
2019-05-21T12:42:39.888Z,1.97
2019-05-21T12:45:08.940Z,2.03
2019-05-21T12:47:37.563Z,1.70
2019-05-21T12:50:07.971Z,1.80
2019-05-21T12:52:36.552Z,1.67
2019-05-21T12:55:08.613Z,1.63
2019-05-21T12:57:37.217Z,2.17
2019-05-21T13:00:09.983Z,1.77
2019-05-21T13:02:38.736Z,2.03
2019-05-21T13:05:11.054Z,2.30
2019-05-21T13:07:37.934Z,2.00
2019-05-21T13:10:06.996Z,1.97
2019-05-21T13:12:35.542Z,2.00
2019-05-21T13:15:08.822Z,1.80
2019-05-21T13:17:37.462Z,1.90
2019-05-21T13:20:08.295Z,1.87
2019-05-21T13:22:39.501Z,2.20
2019-05-21T13:25:09.110Z,2.23
2019-05-21T13:27:39.090Z,1.93
2019-05-21T13:30:08.707Z,2.10
2019-05-21T13:32:37.407Z,2.60
2019-05-21T13:35:07.606Z,2.20
2019-05-21T13:37:36.483Z,2.03
2019-05-21T13:40:09.691Z,2.17
2019-05-21T13:42:38.507Z,2.20
2019-05-21T13:45:08.638Z,2.30
2019-05-21T13:47:37.128Z,2.23
2019-05-21T13:50:08.706Z,2.50
2019-05-21T13:52:37.552Z,2.10
2019-05-21T13:55:07.417Z,1.97
2019-05-21T13:57:37.403Z,2.40
2019-05-21T14:00:11.920Z,2.07
2019-05-21T14:02:40.452Z,2.30
2019-05-21T14:05:10.434Z,2.50
2019-05-21T14:07:39.087Z,2.67
2019-05-21T14:10:15.592Z,2.27
2019-05-21T14:12:38.768Z,2.93
2019-05-21T14:15:08.064Z,2.50
2019-05-21T14:17:36.728Z,2.70
2019-05-21T14:20:10.524Z,2.97
2019-05-21T14:22:39.170Z,2.40
2019-05-21T14:25:08.060Z,2.50
2019-05-21T14:27:44.419Z,2.40
2019-05-21T14:30:09.551Z,2.57
2019-05-21T14:32:38.131Z,2.00
2019-05-21T14:35:06.848Z,2.20
2019-05-21T14:37:35.715Z,2.10
2019-05-21T14:40:06.354Z,1.97
2019-05-21T14:42:34.903Z,2.23
2019-05-21T14:45:04.749Z,2.00
2019-05-21T14:47:36.087Z,2.30
2019-05-21T14:50:07.166Z,1.90
2019-05-21T14:52:35.979Z,1.77
2019-05-21T14:55:09.079Z,2.30
2019-05-21T14:57:37.706Z,2.20
2019-05-21T17:10:32.045Z,2.00
2019-05-21T17:13:00.551Z,1.80
2019-05-21T17:15:29.202Z,1.60
2019-05-21T17:17:57.803Z,2.17
2019-05-21T17:20:26.451Z,1.87
2019-05-21T17:22:55.058Z,1.70
2019-05-21T17:25:23.699Z,2.27
2019-05-21T17:27:52.333Z,1.60
2019-05-21T17:30:45.185Z,2.00
2019-05-21T17:33:24.562Z,1.60
2019-05-21T17:36:09.452Z,1.70
2019-05-21T17:38:34.057Z,1.67
2019-05-21T17:41:03.471Z,1.87
2019-05-21T17:43:32.247Z,1.83
2019-05-21T17:46:00.849Z,1.70
2019-05-21T17:48:29.574Z,1.90
2019-05-21T17:50:58.364Z,1.57
2019-05-21T17:53:27.479Z,1.70
2019-05-21T17:55:56.143Z,1.80
2019-05-21T17:58:24.780Z,1.83
2019-05-21T18:01:06.398Z,1.70
2019-05-21T18:03:38.449Z,1.50
2019-05-21T18:06:08.367Z,1.70
2019-05-21T18:08:37.986Z,1.70
2019-05-21T18:11:07.451Z,1.60
2019-05-21T18:13:37.930Z,1.80
2019-05-21T18:16:12.159Z,1.70
2019-05-21T18:18:41.611Z,1.53
2019-05-21T18:21:11.909Z,2.00
2019-05-21T18:23:41.467Z,1.93
2019-05-21T18:26:10.144Z,1.90
2019-05-21T18:28:39.049Z,2.20
2019-05-21T18:31:27.008Z,1.67
2019-05-21T18:33:55.698Z,2.00
2019-05-21T18:36:24.329Z,1.77
2019-05-21T18:38:53.635Z,2.10
2019-05-21T18:41:22.380Z,1.60
2019-05-21T18:43:51.003Z,1.60
2019-05-21T18:46:19.639Z,1.67
2019-05-21T18:48:48.397Z,1.47
2019-05-21T18:51:17.193Z,1.50
2019-05-21T18:53:46.042Z,1.90
2019-05-21T18:56:14.866Z,1.77
2019-05-21T18:58:43.618Z,1.80
2019-05-21T19:01:12.573Z,1.60
2019-05-21T19:03:41.210Z,2.20
2019-05-21T19:06:10.117Z,1.30
2019-05-21T19:08:38.799Z,1.50
2019-05-21T19:11:07.489Z,2.07
2019-05-21T19:13:36.430Z,1.47
2019-05-21T19:16:05.166Z,1.53
2019-05-21T19:18:33.855Z,1.37
2019-05-21T19:21:02.719Z,1.60
2019-05-21T19:23:31.343Z,1.50
2019-05-21T19:25:59.925Z,1.50
2019-05-21T19:28:28.494Z,1.50
2019-05-21T19:30:57.227Z,1.50
2019-05-21T19:33:25.874Z,1.30
2019-05-21T19:35:54.585Z,1.10
2019-05-21T19:38:23.212Z,1.43
2019-05-21T19:40:51.809Z,1.80
2019-05-21T19:43:20.649Z,1.40
2019-05-21T19:45:49.230Z,1.60
2019-05-21T19:48:18.052Z,1.30
2019-05-21T19:50:49.882Z,1.50
2019-05-21T19:53:18.874Z,1.50
2019-05-21T19:55:47.491Z,1.10
2019-05-21T19:58:16.341Z,1.80
2019-05-21T20:00:46.884Z,1.90
2019-05-21T20:03:15.505Z,1.40
2019-05-21T20:05:44.898Z,1.27
2019-05-21T20:08:13.698Z,1.40
2019-05-21T20:10:42.518Z,1.30
2019-05-21T20:13:11.129Z,1.70
2019-05-21T20:15:40.228Z,1.50
2019-05-21T20:18:09.453Z,1.47
2019-05-21T20:20:38.577Z,1.60
2019-05-21T20:23:11.389Z,1.87
2019-05-21T20:25:55.330Z,1.60
2019-05-21T20:28:11.932Z,1.60
2019-05-21T20:30:44.463Z,1.70
2019-05-21T20:33:11.863Z,1.40
2019-05-21T20:35:41.578Z,1.50
2019-05-21T20:38:10.551Z,1.40
2019-05-21T20:40:40.261Z,1.80
2019-05-21T20:43:09.612Z,1.50
2019-05-21T20:45:39.976Z,1.70
2019-05-21T20:48:10.254Z,1.40
2019-05-21T20:50:39.702Z,1.40
2019-05-21T20:53:08.875Z,1.53
2019-05-21T20:55:38.448Z,1.37
2019-05-21T20:58:08.227Z,1.30
2019-05-21T21:00:38.604Z,1.47
2019-05-21T21:03:10.391Z,1.50
2019-05-21T21:05:39.470Z,1.67
2019-05-21T21:08:08.759Z,1.37
2019-05-21T21:10:38.053Z,1.83
2019-05-21T21:13:08.923Z,1.37
2019-05-21T21:15:37.735Z,1.40
2019-05-21T21:18:06.929Z,1.63
2019-05-21T21:20:35.486Z,1.30
2019-05-21T21:23:04.334Z,1.50
2019-05-21T21:25:33.073Z,1.87
2019-05-21T21:28:02.083Z,1.53
2019-05-21T21:30:30.979Z,1.60
2019-05-21T21:33:01.204Z,1.40
2019-05-21T21:35:31.350Z,1.40
2019-05-21T21:38:01.854Z,1.30
2019-05-21T21:40:30.762Z,1.43
2019-05-21T21:43:09.623Z,1.40
2019-05-21T21:45:38.756Z,1.70
2019-05-21T21:48:07.931Z,1.80
2019-05-21T21:50:37.658Z,1.77
2019-05-21T21:53:06.891Z,1.43
2019-05-21T21:55:35.545Z,1.70
2019-05-21T21:58:04.252Z,1.73
2019-05-21T22:00:58.803Z,1.77
2019-05-21T22:03:32.628Z,1.83
2019-05-21T22:06:02.619Z,1.67
2019-05-21T22:08:32.630Z,1.60
2019-05-21T22:11:01.646Z,1.50
2019-05-21T22:13:30.908Z,1.73
2019-05-21T22:15:59.952Z,1.80
2019-05-21T22:18:29.153Z,1.87
2019-05-21T22:20:57.887Z,1.60
2019-05-21T22:23:27.592Z,1.30
2019-05-21T22:25:56.099Z,1.90
2019-05-21T22:28:25.019Z,1.80
2019-05-21T22:30:53.964Z,1.70
2019-05-21T22:33:22.965Z,1.80
2019-05-21T22:35:51.532Z,1.80
2019-05-21T22:38:21.713Z,1.87
2019-05-21T22:40:50.713Z,1.57
2019-05-21T22:43:19.483Z,2.10
2019-05-21T22:45:48.156Z,1.70
2019-05-21T22:48:16.789Z,1.80
2019-05-21T22:50:45.503Z,2.60
2019-05-21T22:53:14.147Z,1.60
2019-05-21T22:55:42.776Z,1.90
2019-05-21T22:58:11.475Z,1.80
2019-05-21T23:00:40.957Z,1.70
2019-05-21T23:03:09.724Z,1.67
2019-05-21T23:05:38.359Z,1.53
2019-05-21T23:08:08.171Z,1.80
2019-05-21T23:10:38.043Z,1.97
2019-05-21T23:13:06.800Z,1.73
2019-05-21T23:15:35.451Z,1.87
2019-05-21T23:18:05.147Z,1.70
2019-05-21T23:20:33.970Z,1.73
2019-05-21T23:23:03.819Z,1.67
2019-05-21T23:25:32.745Z,1.80
2019-05-21T23:28:03.895Z,1.70
2019-05-21T23:30:32.565Z,1.57
2019-05-21T23:33:01.375Z,1.80
2019-05-21T23:35:30.094Z,1.60
2019-05-21T23:38:01.292Z,2.10
2019-05-21T23:40:30.331Z,1.67
2019-05-21T23:42:59.207Z,1.87
2019-05-21T23:45:28.016Z,1.97
2019-05-21T23:47:56.617Z,2.00
2019-05-21T23:50:26.126Z,1.80
2019-05-21T23:52:57.389Z,1.63
2019-05-21T23:55:26.046Z,2.00
2019-05-21T23:57:54.781Z,1.77
